createdAt,value
2018-12-18T00:01:20.020Z,11.57
2018-12-18T00:03:48.539Z,11.03
2018-12-18T00:06:17.715Z,10.90
2018-12-18T00:08:46.221Z,10.73
2018-12-18T00:11:14.756Z,10.83
2018-12-18T00:13:44.321Z,10.70
2018-12-18T00:16:12.840Z,10.90
2018-12-18T00:18:42.611Z,11.20
2018-12-18T00:21:11.013Z,10.37
2018-12-18T00:23:39.668Z,10.80
2018-12-18T00:26:08.715Z,11.70
2018-12-18T00:28:37.347Z,10.40
2018-12-18T00:31:07.546Z,10.37
2018-12-18T00:33:38.470Z,10.50
2018-12-18T00:36:07.925Z,11.37
2018-12-18T00:38:36.042Z,10.90
2018-12-18T00:41:05.299Z,11.07
2018-12-18T00:43:33.648Z,10.50
2018-12-18T00:46:03.711Z,11.10
2018-12-18T00:48:31.916Z,10.80
2018-12-18T00:51:00.551Z,10.83
2018-12-18T00:53:29.073Z,10.87
2018-12-18T00:55:58.936Z,10.57
2018-12-18T00:58:27.377Z,10.20
2018-12-18T01:00:56.928Z,9.70
2018-12-18T01:03:25.005Z,10.10
2018-12-18T01:05:53.661Z,9.53
2018-12-18T01:08:23.572Z,9.77
2018-12-18T01:10:51.767Z,9.33
2018-12-18T01:13:22.199Z,8.53
2018-12-18T01:15:50.821Z,9.07
2018-12-18T01:18:19.451Z,8.67
2018-12-18T01:20:48.602Z,8.70
2018-12-18T01:23:17.338Z,8.73
2018-12-18T01:25:46.292Z,9.10
2018-12-18T01:28:15.538Z,7.43
2018-12-18T01:30:44.488Z,7.63
2018-12-18T01:33:12.625Z,8.70
2018-12-18T01:35:41.189Z,7.33
2018-12-18T01:38:09.535Z,8.00
2018-12-18T01:40:39.413Z,8.67
2018-12-18T01:43:08.468Z,8.00
2018-12-18T01:45:36.910Z,8.03
2018-12-18T01:48:06.890Z,7.97
2018-12-18T01:50:35.611Z,8.40
2018-12-18T01:53:03.681Z,7.20
2018-12-18T01:55:33.073Z,8.13
2018-12-18T01:58:01.416Z,7.30
2018-12-18T02:00:30.548Z,8.10
2018-12-18T02:02:59.012Z,7.70
2018-12-18T02:05:27.601Z,8.87
2018-12-18T02:07:55.789Z,7.93
2018-12-18T02:10:25.695Z,8.17
2018-12-18T02:12:55.790Z,7.67
2018-12-18T02:15:24.006Z,7.53
2018-12-18T02:17:52.639Z,7.80
2018-12-18T02:20:21.782Z,8.57
2018-12-18T02:22:50.934Z,8.33
2018-12-18T02:25:20.295Z,8.77
2018-12-18T02:27:49.657Z,8.23
2018-12-18T02:30:18.290Z,7.80
2018-12-18T02:32:46.916Z,8.50
2018-12-18T02:35:15.446Z,9.47
2018-12-18T02:37:44.699Z,11.90
2018-12-18T02:40:13.853Z,15.80
2018-12-18T02:42:42.262Z,14.30
2018-12-18T02:45:10.589Z,9.73
2018-12-18T02:47:39.012Z,9.87
2018-12-18T02:50:07.536Z,9.13
2018-12-18T02:52:36.378Z,8.03
2018-12-18T02:55:05.535Z,8.27
2018-12-18T02:57:34.999Z,8.43
2018-12-18T03:00:07.435Z,8.53
2018-12-18T03:02:36.529Z,7.97
2018-12-18T03:05:06.101Z,7.93
2018-12-18T03:07:35.132Z,8.40
2018-12-18T03:10:05.224Z,8.43
2018-12-18T03:12:33.771Z,8.53
2018-12-18T03:15:03.341Z,8.23
2018-12-18T03:17:32.073Z,7.83
2018-12-18T03:20:01.117Z,8.80
2018-12-18T03:22:30.793Z,8.80
2018-12-18T03:24:58.890Z,8.90
2018-12-18T03:27:27.433Z,8.80
2018-12-18T03:29:55.905Z,9.47
2018-12-18T03:32:26.468Z,10.07
2018-12-18T03:34:56.663Z,9.73
2018-12-18T03:37:25.193Z,9.70
2018-12-18T03:39:54.656Z,9.13
2018-12-18T03:42:23.265Z,9.80
2018-12-18T03:44:53.377Z,9.50
2018-12-18T03:47:22.217Z,9.87
2018-12-18T03:49:50.847Z,9.37
2018-12-18T03:52:19.571Z,9.80
2018-12-18T03:54:47.924Z,10.23
2018-12-18T03:57:16.413Z,9.93
2018-12-18T03:59:44.655Z,9.37
2018-12-18T04:02:13.569Z,9.83
2018-12-18T04:04:42.941Z,9.00
2018-12-18T04:07:11.584Z,9.97
2018-12-18T04:09:40.721Z,9.27
2018-12-18T04:12:12.254Z,9.50
2018-12-18T04:14:41.443Z,9.53
2018-12-18T04:17:10.754Z,9.43
2018-12-18T04:19:38.804Z,8.80
2018-12-18T04:22:08.352Z,9.30
2018-12-18T04:24:36.868Z,8.67
2018-12-18T04:27:05.512Z,8.67
2018-12-18T04:29:35.924Z,8.73
2018-12-18T04:32:04.659Z,8.33
2018-12-18T04:34:32.891Z,10.53
2018-12-18T04:37:01.609Z,8.70
2018-12-18T04:39:30.457Z,8.60
2018-12-18T04:41:58.947Z,8.23
2018-12-18T04:44:27.037Z,7.77
2018-12-18T04:46:56.380Z,8.80
2018-12-18T04:49:27.914Z,7.90
2018-12-18T04:51:56.525Z,7.93
2018-12-18T04:54:25.154Z,8.00
2018-12-18T04:56:54.621Z,7.23
2018-12-18T04:59:23.165Z,7.87
2018-12-18T05:01:51.541Z,7.47
2018-12-18T05:04:20.821Z,7.87
2018-12-18T05:06:49.868Z,7.77
2018-12-18T05:09:18.803Z,6.17
2018-12-18T05:11:47.331Z,6.50
2018-12-18T05:14:16.273Z,6.30
2018-12-18T05:16:44.467Z,7.23
2018-12-18T05:19:13.852Z,7.27
2018-12-18T05:21:42.040Z,7.20
2018-12-18T05:24:10.576Z,6.53
2018-12-18T05:26:39.960Z,7.10
2018-12-18T05:29:08.363Z,6.83
2018-12-18T05:31:37.216Z,6.90
2018-12-18T05:34:05.620Z,6.93
2018-12-18T05:36:34.465Z,7.60
2018-12-18T05:39:03.931Z,5.73
2018-12-18T05:41:32.648Z,9.73
2018-12-18T05:44:02.450Z,8.17
2018-12-18T05:46:30.573Z,6.20
2018-12-18T05:48:59.507Z,6.17
2018-12-18T05:51:27.796Z,6.47
2018-12-18T05:53:56.338Z,6.20
2018-12-18T05:56:25.386Z,6.13
2018-12-18T05:58:55.170Z,5.70
2018-12-18T06:01:23.592Z,6.40
2018-12-18T06:03:53.512Z,6.03
2018-12-18T06:06:22.106Z,5.60
2018-12-18T06:08:50.418Z,5.87
2018-12-18T06:11:18.552Z,5.40
2018-12-18T06:13:47.148Z,5.53
2018-12-18T06:16:15.688Z,6.23
2018-12-18T06:18:44.837Z,4.67
2018-12-18T06:21:14.095Z,5.47
2018-12-18T06:23:42.726Z,5.97
2018-12-18T06:26:11.771Z,5.80
2018-12-18T06:28:40.284Z,5.00
2018-12-18T06:31:08.823Z,4.83
2018-12-18T06:33:37.244Z,4.93
2018-12-18T06:36:06.450Z,4.77
2018-12-18T06:38:35.557Z,4.83
2018-12-18T06:41:04.588Z,5.00
2018-12-18T06:43:32.828Z,5.70
2018-12-18T06:46:02.087Z,4.53
2018-12-18T06:48:30.695Z,5.00
2018-12-18T06:50:59.534Z,4.50
2018-12-18T06:53:28.034Z,4.50
2018-12-18T06:55:56.695Z,4.90
2018-12-18T06:58:24.989Z,5.00
2018-12-18T07:00:53.503Z,4.87
2018-12-18T07:03:21.954Z,4.00
2018-12-18T07:05:50.571Z,6.20
2018-12-18T07:08:18.654Z,4.50
2018-12-18T07:10:47.206Z,4.30
2018-12-18T07:13:15.768Z,4.40
2018-12-18T07:15:44.259Z,4.80
2018-12-18T07:18:12.796Z,4.17
2018-12-18T07:20:41.528Z,4.60
2018-12-18T07:23:11.081Z,4.53
2018-12-18T07:25:39.561Z,29.67
2018-12-18T07:28:07.940Z,5.90
2018-12-18T07:30:37.500Z,4.87
2018-12-18T07:33:06.562Z,4.67
2018-12-18T07:35:37.386Z,4.30
2018-12-18T07:38:07.267Z,4.53
2018-12-18T07:40:37.046Z,4.30
2018-12-18T07:43:05.466Z,3.90
2018-12-18T07:45:34.281Z,3.60
2018-12-18T07:48:03.980Z,3.87
2018-12-18T07:50:32.714Z,4.27
2018-12-18T07:53:01.761Z,4.50
2018-12-18T07:55:30.682Z,3.67
2018-12-18T07:57:59.331Z,3.93
2018-12-18T08:00:29.000Z,4.53
2018-12-18T08:02:57.584Z,3.97
2018-12-18T08:05:29.773Z,4.00
2018-12-18T08:07:56.807Z,4.40
2018-12-18T08:10:25.827Z,3.67
2018-12-18T08:12:54.016Z,3.90
2018-12-18T08:15:24.229Z,4.30
2018-12-18T08:17:53.324Z,4.00
2018-12-18T08:20:21.916Z,4.03
2018-12-18T08:22:50.093Z,3.70
2018-12-18T08:25:19.269Z,3.90
2018-12-18T08:27:48.578Z,3.40
2018-12-18T08:30:16.679Z,3.30
2018-12-18T08:32:45.690Z,3.50
2018-12-18T08:35:14.208Z,3.43
2018-12-18T08:37:43.345Z,3.70
2018-12-18T08:40:13.879Z,3.40
2018-12-18T08:42:42.068Z,3.50
2018-12-18T08:45:10.617Z,3.30
2018-12-18T08:47:39.144Z,3.50
2018-12-18T08:50:08.837Z,3.00
2018-12-18T08:52:37.863Z,3.57
2018-12-18T08:55:06.811Z,3.93
2018-12-18T08:57:35.215Z,3.90
2018-12-18T09:00:06.341Z,3.43
2018-12-18T09:02:35.621Z,3.17
2018-12-18T09:05:04.543Z,3.33
2018-12-18T09:07:34.866Z,3.13
2018-12-18T09:10:04.481Z,3.37
2018-12-18T09:12:32.963Z,3.23
2018-12-18T09:15:03.997Z,2.63
2018-12-18T09:17:51.009Z,3.10
2018-12-18T09:20:19.533Z,3.40
2018-12-18T09:22:48.582Z,3.20
2018-12-18T09:25:17.196Z,2.90
2018-12-18T09:27:45.746Z,4.00
2018-12-18T09:30:14.783Z,3.57
2018-12-18T09:32:43.104Z,4.60
2018-12-18T09:35:11.704Z,3.27
2018-12-18T09:37:40.261Z,3.37
2018-12-18T09:40:09.095Z,3.77
2018-12-18T09:42:43.891Z,3.30
2018-12-18T09:45:12.413Z,3.90
2018-12-18T09:47:41.046Z,3.30
2018-12-18T09:50:10.612Z,3.10
2018-12-18T09:52:38.898Z,3.10
2018-12-18T09:55:08.713Z,3.13
2018-12-18T09:57:42.609Z,3.67
2018-12-18T10:00:11.226Z,3.50
2018-12-18T10:02:40.856Z,3.60
2018-12-18T10:05:11.590Z,3.07
2018-12-18T10:07:39.756Z,3.60
2018-12-18T10:10:09.470Z,3.57
2018-12-18T10:12:45.622Z,3.40
2018-12-18T10:15:14.246Z,3.80
2018-12-18T10:17:42.779Z,3.43
2018-12-18T10:20:11.294Z,3.33
2018-12-18T10:22:39.621Z,3.87
2018-12-18T10:25:07.819Z,3.43
2018-12-18T10:27:35.958Z,3.20
2018-12-18T10:30:07.604Z,3.50
2018-12-18T10:32:36.453Z,3.50
2018-12-18T10:35:06.536Z,3.73
2018-12-18T10:37:35.786Z,3.67
2018-12-18T10:40:06.349Z,3.40
2018-12-18T10:42:34.927Z,3.27
2018-12-18T10:45:05.765Z,3.40
2018-12-18T10:47:34.277Z,2.77
2018-12-18T10:50:04.685Z,3.40
2018-12-18T10:52:34.252Z,3.60
2018-12-18T10:55:03.588Z,3.23
2018-12-18T10:57:33.628Z,2.83
2018-12-18T11:00:03.275Z,3.10
2018-12-18T11:02:31.905Z,2.83
2018-12-18T11:05:00.053Z,2.60
2018-12-18T11:07:29.060Z,2.93
2018-12-18T11:09:58.641Z,2.80
2018-12-18T11:12:39.914Z,2.70
2018-12-18T11:15:08.951Z,2.83
2018-12-18T11:17:38.205Z,3.47
2018-12-18T11:20:06.834Z,2.93
2018-12-18T11:22:36.196Z,2.57
2018-12-18T11:25:06.803Z,2.60
2018-12-18T11:27:37.005Z,2.87
2018-12-18T11:30:05.517Z,2.90
2018-12-18T11:32:34.685Z,3.20
2018-12-18T11:35:03.209Z,2.93
2018-12-18T11:37:31.736Z,2.57
2018-12-18T11:40:00.470Z,2.47
2018-12-18T11:42:29.422Z,2.63
2018-12-18T11:44:57.755Z,2.70
2018-12-18T11:47:26.885Z,2.73
2018-12-18T11:49:56.012Z,3.23
2018-12-18T11:52:25.396Z,2.73
2018-12-18T11:54:54.348Z,2.97
2018-12-18T11:57:22.760Z,2.93
2018-12-18T11:59:51.392Z,2.80
2018-12-18T12:02:20.020Z,3.10
2018-12-18T12:04:48.636Z,2.30
2018-12-18T12:07:17.072Z,2.97
2018-12-18T12:09:45.092Z,2.50
2018-12-18T12:12:13.785Z,2.67
2018-12-18T12:14:43.280Z,2.73
2018-12-18T12:17:13.681Z,2.80
2018-12-18T12:19:41.991Z,2.80
2018-12-18T12:22:13.441Z,2.80
2018-12-18T12:24:42.348Z,3.30
2018-12-18T12:27:16.973Z,3.23
2018-12-18T12:29:45.956Z,3.00
2018-12-18T12:32:14.754Z,2.90
2018-12-18T12:34:44.743Z,2.83
2018-12-18T12:37:13.004Z,4.37
2018-12-18T12:39:41.227Z,2.70
2018-12-18T12:42:09.798Z,2.97
2018-12-18T12:44:38.742Z,2.77
2018-12-18T12:47:06.857Z,3.20
2018-12-18T12:49:41.015Z,3.20
2018-12-18T12:52:09.433Z,3.07
2018-12-18T12:54:38.072Z,2.93
2018-12-18T12:57:07.055Z,3.03
2018-12-18T12:59:35.609Z,3.17
2018-12-18T13:02:05.396Z,2.90
2018-12-18T13:04:35.308Z,3.80
2018-12-18T13:07:03.829Z,2.80
2018-12-18T13:09:31.903Z,3.00
2018-12-18T13:12:00.465Z,3.10
2018-12-18T13:14:29.409Z,2.90
2018-12-18T13:16:57.928Z,3.17
2018-12-18T13:19:26.439Z,2.97
2018-12-18T13:21:54.986Z,3.20
2018-12-18T13:24:23.144Z,3.40
2018-12-18T13:26:53.178Z,3.10
2018-12-18T13:29:21.588Z,2.70
2018-12-18T13:31:50.660Z,2.60
2018-12-18T13:34:19.593Z,2.90
2018-12-18T13:36:48.118Z,2.93
2018-12-18T13:39:16.955Z,3.17
2018-12-18T13:41:45.276Z,3.90
2018-12-18T13:44:13.811Z,2.90
2018-12-18T13:46:42.430Z,2.93
2018-12-18T13:49:12.004Z,2.83
2018-12-18T13:51:40.501Z,3.43
2018-12-18T13:54:08.709Z,2.77
2018-12-18T13:56:37.266Z,3.00
2018-12-18T13:59:05.657Z,3.20
2018-12-18T14:01:33.863Z,3.90
2018-12-18T14:04:02.619Z,3.50
2018-12-18T14:06:31.680Z,2.90
2018-12-18T14:08:59.913Z,3.47
2018-12-18T14:11:28.415Z,3.50
2018-12-18T14:13:57.567Z,2.97
2018-12-18T14:16:25.964Z,2.93
2018-12-18T14:18:54.410Z,3.30
2018-12-18T14:21:23.596Z,3.30
2018-12-18T14:23:52.090Z,3.37
2018-12-18T14:26:21.648Z,3.27
2018-12-18T14:28:50.814Z,3.73
2018-12-18T14:31:19.848Z,3.13
2018-12-18T14:33:48.373Z,3.10
2018-12-18T14:36:17.451Z,3.33
2018-12-18T14:38:46.799Z,3.33
2018-12-18T14:41:16.437Z,3.37
2018-12-18T14:43:44.681Z,3.50
2018-12-18T14:46:12.904Z,3.33
2018-12-18T14:48:41.404Z,3.70
2018-12-18T14:51:09.839Z,3.80
2018-12-18T14:53:38.100Z,3.63
2018-12-18T14:56:06.191Z,3.50
2018-12-18T14:58:35.608Z,4.07
2018-12-18T15:01:04.881Z,3.73
2018-12-18T15:03:34.868Z,5.73
2018-12-18T15:06:04.020Z,3.50
2018-12-18T15:08:32.486Z,4.00
2018-12-18T15:11:01.910Z,4.13
2018-12-18T15:13:30.841Z,4.70
2018-12-18T15:16:00.525Z,3.57
2018-12-18T15:18:29.993Z,3.90
2018-12-18T15:20:59.560Z,3.97
2018-12-18T15:23:27.765Z,3.50
2018-12-18T15:25:57.438Z,3.33
2018-12-18T15:28:26.381Z,2.80
2018-12-18T15:30:55.962Z,3.20
2018-12-18T15:33:24.907Z,4.10
2018-12-18T15:35:55.207Z,3.97
2018-12-18T15:38:23.619Z,3.27
2018-12-18T15:40:53.301Z,3.50
2018-12-18T15:43:21.830Z,2.83
2018-12-18T15:45:51.710Z,3.40
2018-12-18T15:48:20.452Z,3.13
2018-12-18T15:50:48.974Z,3.63
2018-12-18T15:53:18.528Z,2.67
2018-12-18T15:55:47.597Z,3.17
2018-12-18T15:58:15.679Z,3.13
2018-12-18T16:00:44.222Z,3.80
2018-12-18T16:03:12.751Z,3.33
2018-12-18T16:05:42.839Z,3.10
2018-12-18T16:08:11.693Z,3.00
2018-12-18T16:10:40.615Z,2.57
2018-12-18T16:13:09.048Z,2.67
2018-12-18T16:15:38.604Z,3.17
2018-12-18T16:18:07.765Z,2.60
2018-12-18T16:20:35.796Z,3.10
2018-12-18T16:23:06.383Z,2.93
2018-12-18T16:25:34.785Z,2.90
2018-12-18T16:28:03.959Z,3.23
2018-12-18T16:30:33.418Z,2.60
2018-12-18T16:33:03.306Z,3.07
2018-12-18T16:35:33.293Z,3.07
2018-12-18T16:38:02.864Z,3.10
2018-12-18T16:40:32.001Z,2.80
2018-12-18T16:43:00.856Z,2.90
2018-12-18T16:45:29.905Z,3.00
2018-12-18T16:47:58.049Z,2.83
2018-12-18T16:50:26.662Z,2.93
2018-12-18T16:52:55.381Z,2.77
2018-12-18T16:55:23.827Z,2.70
2018-12-18T16:57:53.566Z,2.90
2018-12-18T17:00:22.085Z,3.30
2018-12-18T17:02:51.571Z,2.60
2018-12-18T17:05:20.093Z,2.93
2018-12-18T17:07:48.273Z,2.80
2018-12-18T17:10:16.935Z,3.53
2018-12-18T17:12:50.681Z,2.63
2018-12-18T17:15:19.316Z,2.73
2018-12-18T17:17:47.912Z,2.60
2018-12-18T17:20:16.480Z,2.50
2018-12-18T17:22:45.525Z,2.40
2018-12-18T17:25:14.982Z,2.70
2018-12-18T17:27:43.407Z,2.97
2018-12-18T17:30:12.038Z,2.60
2018-12-18T17:32:40.301Z,2.40
2018-12-18T17:35:08.753Z,2.60
2018-12-18T17:37:37.469Z,3.37
2018-12-18T17:40:06.445Z,3.77
2018-12-18T17:42:37.681Z,3.33
2018-12-18T17:45:07.463Z,3.53
2018-12-18T17:47:36.104Z,3.37
2018-12-18T17:50:06.726Z,3.63
2018-12-18T17:52:35.692Z,3.90
2018-12-18T17:55:04.817Z,3.73
2018-12-18T17:57:33.580Z,3.80
2018-12-18T18:00:01.967Z,3.70
2018-12-18T18:02:32.161Z,4.80
2018-12-18T18:05:01.213Z,4.40
2018-12-18T18:07:29.824Z,4.70
2018-12-18T18:09:59.406Z,4.40
2018-12-18T18:12:30.075Z,4.23
2018-12-18T18:14:59.018Z,4.77
2018-12-18T18:17:28.330Z,4.50
2018-12-18T18:19:57.815Z,4.50
2018-12-18T18:22:26.946Z,4.63
2018-12-18T18:24:55.053Z,4.80
2018-12-18T18:27:24.212Z,4.80
2018-12-18T18:29:52.733Z,4.70
2018-12-18T18:32:21.457Z,4.40
2018-12-18T18:34:49.762Z,4.80
2018-12-18T18:37:18.726Z,5.27
2018-12-18T18:39:47.448Z,4.83
2018-12-18T18:42:17.063Z,5.33
2018-12-18T18:44:46.147Z,4.40
2018-12-18T18:47:15.645Z,5.07
2018-12-18T18:49:45.673Z,4.83
2018-12-18T18:52:14.738Z,5.23
2018-12-18T18:54:43.628Z,4.90
2018-12-18T18:57:12.049Z,4.23
2018-12-18T18:59:41.133Z,4.33
2018-12-18T19:02:09.624Z,4.90
2018-12-18T19:04:37.908Z,4.97
2018-12-18T19:07:08.032Z,4.80
2018-12-18T19:09:37.186Z,5.30
2018-12-18T19:12:05.621Z,4.87
2018-12-18T19:14:33.700Z,4.00
2018-12-18T19:17:02.556Z,4.87
2018-12-18T19:19:34.628Z,4.10
2018-12-18T19:22:02.793Z,4.33
2018-12-18T19:24:31.264Z,4.40
2018-12-18T19:27:00.622Z,4.80
2018-12-18T19:29:29.148Z,4.70
2018-12-18T19:31:57.560Z,4.50
2018-12-18T19:34:25.886Z,4.20
2018-12-18T19:36:55.175Z,4.37
2018-12-18T19:39:24.301Z,4.33
2018-12-18T19:41:53.479Z,3.60
2018-12-18T19:44:21.868Z,5.10
2018-12-18T19:46:50.077Z,3.97
2018-12-18T19:49:19.558Z,4.00
2018-12-18T19:51:48.074Z,4.30
2018-12-18T19:54:16.841Z,4.40
2018-12-18T19:56:45.760Z,4.30
2018-12-18T19:59:14.275Z,3.60
2018-12-18T20:01:42.790Z,6.33
2018-12-18T20:04:11.647Z,4.10
2018-12-18T20:06:40.498Z,3.63
2018-12-18T20:09:08.588Z,3.63
2018-12-18T20:11:37.529Z,3.90
2018-12-18T20:14:07.623Z,4.40
2018-12-18T20:16:36.670Z,3.60
2018-12-18T20:19:05.589Z,3.97
2018-12-18T20:21:34.141Z,4.20
2018-12-18T20:24:02.804Z,4.00
2018-12-18T20:26:30.924Z,3.70
2018-12-18T20:29:00.239Z,4.00
2018-12-18T20:31:29.796Z,3.90
2018-12-18T20:33:58.652Z,9.83
2018-12-18T20:36:28.010Z,3.63
2018-12-18T20:38:57.266Z,3.80
2018-12-18T20:41:25.583Z,4.03
2018-12-18T20:43:53.798Z,3.57
2018-12-18T20:46:22.824Z,3.80
2018-12-18T20:48:52.935Z,3.47
2018-12-18T20:51:21.868Z,3.73
2018-12-18T20:53:50.834Z,3.10
2018-12-18T20:56:20.393Z,3.90
2018-12-18T20:58:49.034Z,3.43
2018-12-18T21:01:17.683Z,3.30
2018-12-18T21:03:47.202Z,3.20
2018-12-18T21:06:15.956Z,3.50
2018-12-18T21:08:46.153Z,3.37
2018-12-18T21:11:14.880Z,2.90
2018-12-18T21:13:43.012Z,3.90
2018-12-18T21:16:12.144Z,3.60
2018-12-18T21:18:41.002Z,3.70
2018-12-18T21:21:15.446Z,3.87
2018-12-18T21:23:41.801Z,3.30
2018-12-18T21:26:11.986Z,3.70
2018-12-18T21:28:41.050Z,3.63
2018-12-18T21:31:09.988Z,3.53
2018-12-18T21:33:39.868Z,3.70
2018-12-18T21:36:08.713Z,3.50
2018-12-18T21:38:36.753Z,3.80
2018-12-18T21:41:05.758Z,3.80
2018-12-18T21:43:34.389Z,4.60
2018-12-18T21:46:03.122Z,5.47
2018-12-18T21:48:32.694Z,3.90
2018-12-18T21:51:01.113Z,3.50
2018-12-18T21:53:29.834Z,3.60
2018-12-18T21:55:58.790Z,3.50
2018-12-18T21:58:27.204Z,2.90
2018-12-18T22:00:57.816Z,2.87
2018-12-18T22:03:26.457Z,3.47
2018-12-18T22:05:55.387Z,3.20
2018-12-18T22:08:23.827Z,3.60
2018-12-18T22:10:52.868Z,3.50
2018-12-18T22:13:21.922Z,3.47
2018-12-18T22:15:50.334Z,3.10
2018-12-18T22:18:20.111Z,2.97
2018-12-18T22:20:48.746Z,3.57
2018-12-18T22:23:19.781Z,2.97
2018-12-18T22:25:48.200Z,3.33
2018-12-18T22:28:16.626Z,3.13
2018-12-18T22:30:46.820Z,3.20
2018-12-18T22:33:15.761Z,2.80
2018-12-18T22:35:45.550Z,3.20
2018-12-18T22:38:15.399Z,3.40
2018-12-18T22:40:44.055Z,3.60
2018-12-18T22:43:13.196Z,3.57
2018-12-18T22:45:41.732Z,3.63
2018-12-18T22:48:10.587Z,3.67
2018-12-18T22:50:40.040Z,3.33
2018-12-18T22:53:08.561Z,3.23
2018-12-18T22:55:36.654Z,3.40
2018-12-18T22:58:05.100Z,3.23
2018-12-18T23:00:39.768Z,3.50
2018-12-18T23:03:09.367Z,3.57
2018-12-18T23:05:37.980Z,3.23
2018-12-18T23:08:07.866Z,3.17
2018-12-18T23:10:36.910Z,3.00
2018-12-18T23:13:06.374Z,3.07
2018-12-18T23:15:34.798Z,3.50
2018-12-18T23:18:03.131Z,3.50
2018-12-18T23:20:32.051Z,3.50
2018-12-18T23:23:01.208Z,2.90
2018-12-18T23:25:29.736Z,3.43
2018-12-18T23:27:58.243Z,3.30
2018-12-18T23:30:26.790Z,3.17
2018-12-18T23:32:55.826Z,3.00
2018-12-18T23:35:24.340Z,3.40
2018-12-18T23:37:52.990Z,3.77
2018-12-18T23:40:21.931Z,3.43
2018-12-18T23:42:50.561Z,3.40
2018-12-18T23:45:19.087Z,2.67
2018-12-18T23:47:47.612Z,3.50
2018-12-18T23:50:15.672Z,3.17
2018-12-18T23:52:44.866Z,3.17
2018-12-18T23:55:15.080Z,3.77
2018-12-18T23:57:46.004Z,2.90
